createdAt,value
2023-04-28T00:01:14.184Z,2.42
2023-04-28T00:03:42.870Z,2.00
2023-04-28T00:06:09.464Z,1.90
2023-04-28T00:08:35.531Z,2.38
2023-04-28T00:11:01.570Z,1.77
2023-04-28T00:13:27.930Z,1.50
2023-04-28T00:15:54.202Z,2.00
2023-04-28T00:18:20.924Z,1.60
2023-04-28T00:20:47.449Z,2.75
2023-04-28T00:23:13.707Z,2.80
2023-04-28T00:25:39.888Z,2.00
2023-04-28T00:28:08.722Z,2.30
2023-04-28T00:30:35.008Z,2.30
2023-04-28T00:33:01.249Z,2.30
2023-04-28T00:35:27.468Z,3.97
2023-04-28T00:37:57.027Z,1.67
2023-04-28T00:40:23.257Z,2.08
2023-04-28T00:42:49.351Z,1.90
2023-04-28T00:45:15.663Z,2.00
2023-04-28T00:47:51.337Z,2.13
2023-04-28T00:50:17.732Z,1.95
2023-04-28T00:52:43.977Z,2.00
2023-04-28T00:55:13.003Z,2.78
2023-04-28T00:57:39.232Z,1.70
2023-04-28T01:00:06.188Z,2.15
2023-04-28T01:02:32.417Z,2.15
2023-04-28T01:05:08.256Z,1.85
2023-04-28T01:07:34.547Z,1.85
2023-04-28T01:10:00.751Z,1.98
2023-04-28T01:12:27.059Z,1.73
2023-04-28T01:14:53.280Z,1.98
2023-04-28T01:17:19.659Z,1.70
2023-04-28T01:19:45.933Z,1.95
2023-04-28T01:22:15.077Z,1.75
2023-04-28T01:24:44.184Z,2.10
2023-04-28T01:27:11.241Z,1.95
2023-04-28T01:29:37.593Z,2.00
2023-04-28T01:32:04.096Z,1.65
2023-04-28T01:34:30.661Z,1.65
2023-04-28T01:36:56.920Z,1.63
2023-04-28T01:39:23.349Z,1.52
2023-04-28T01:41:52.249Z,2.05
2023-04-28T01:44:18.701Z,1.80
2023-04-28T01:46:45.437Z,1.90
2023-04-28T01:49:11.624Z,1.90
2023-04-28T01:51:37.721Z,2.08
2023-04-28T01:54:04.298Z,2.05
2023-04-28T01:56:30.601Z,2.22
2023-04-28T01:58:59.838Z,1.63
2023-04-28T02:01:26.080Z,2.00
2023-04-28T02:03:52.557Z,2.05
2023-04-28T02:06:19.062Z,2.20
2023-04-28T02:08:45.195Z,2.10
2023-04-28T02:11:11.257Z,2.08
2023-04-28T02:13:37.510Z,1.90
2023-04-28T02:16:03.766Z,2.22
2023-04-28T02:18:32.121Z,2.25
2023-04-28T02:20:58.231Z,2.03
2023-04-28T02:23:24.354Z,2.05
2023-04-28T02:25:50.505Z,2.17
2023-04-28T02:28:16.609Z,1.90
2023-04-28T02:30:42.841Z,1.88
2023-04-28T02:33:08.977Z,2.20
2023-04-28T02:35:38.421Z,2.70
2023-04-28T02:38:05.796Z,2.15
2023-04-28T02:40:31.955Z,2.22
2023-04-28T02:42:58.123Z,2.28
2023-04-28T02:45:24.307Z,2.10
2023-04-28T02:47:50.601Z,2.10
2023-04-28T02:50:16.851Z,2.22
2023-04-28T02:52:43.028Z,1.95
2023-04-28T02:55:09.300Z,2.03
2023-04-28T02:57:35.571Z,2.38
2023-04-28T03:00:01.905Z,2.67
2023-04-28T03:02:28.173Z,2.53
2023-04-28T03:04:54.508Z,2.55
2023-04-28T03:07:20.674Z,3.17
2023-04-28T03:09:48.266Z,2.50
2023-04-28T03:12:14.409Z,2.95
2023-04-28T03:14:40.845Z,2.45
2023-04-28T03:17:07.232Z,2.90
2023-04-28T03:19:33.645Z,2.30
2023-04-28T03:21:59.847Z,2.63
2023-04-28T03:24:26.060Z,2.58
2023-04-28T03:26:55.049Z,2.80
2023-04-28T03:29:24.211Z,2.42
2023-04-28T03:31:53.098Z,2.75
2023-04-28T03:34:19.428Z,2.53
2023-04-28T03:36:48.752Z,2.20
2023-04-28T03:39:19.140Z,2.85
2023-04-28T03:41:48.319Z,2.45
2023-04-28T03:44:14.924Z,2.63
2023-04-28T03:46:41.361Z,2.47
2023-04-28T03:49:07.459Z,2.90
2023-04-28T03:51:34.003Z,2.45
2023-04-28T03:54:00.388Z,2.58
2023-04-28T03:56:26.436Z,2.45
2023-04-28T03:58:52.565Z,2.63
2023-04-28T04:01:19.044Z,2.63
2023-04-28T04:03:45.592Z,2.85
2023-04-28T04:06:16.436Z,2.75
2023-04-28T04:08:45.790Z,2.40
2023-04-28T04:11:11.869Z,2.58
2023-04-28T04:13:40.890Z,3.72
2023-04-28T04:16:09.874Z,2.60
2023-04-28T04:18:35.912Z,2.72
2023-04-28T04:21:02.821Z,2.83
2023-04-28T04:23:28.934Z,3.60
2023-04-28T04:25:55.653Z,3.10
2023-04-28T04:28:21.783Z,3.35
2023-04-28T04:30:47.972Z,2.75
2023-04-28T04:33:14.698Z,2.83
2023-04-28T04:35:40.959Z,2.45
2023-04-28T04:38:07.170Z,3.47
2023-04-28T04:40:33.250Z,3.25
2023-04-28T04:42:59.748Z,2.60
2023-04-28T04:45:26.746Z,3.90
2023-04-28T04:47:52.999Z,3.15
2023-04-28T04:50:19.549Z,3.30
2023-04-28T04:52:45.671Z,3.22
2023-04-28T04:55:11.871Z,2.85
2023-04-28T04:57:38.058Z,2.72
2023-04-28T05:00:05.243Z,3.38
2023-04-28T05:02:31.425Z,3.22
2023-04-28T05:05:08.237Z,2.75
2023-04-28T05:07:43.798Z,2.92
2023-04-28T05:10:11.256Z,3.22
2023-04-28T05:12:38.881Z,3.20
2023-04-28T05:15:06.414Z,3.20
2023-04-28T05:17:32.593Z,3.45
2023-04-28T05:19:59.104Z,2.83
2023-04-28T05:22:26.103Z,3.25
2023-04-28T05:24:52.504Z,3.40
2023-04-28T05:27:19.121Z,3.33
2023-04-28T05:29:45.380Z,3.42
2023-04-28T05:32:11.733Z,3.38
2023-04-28T05:34:37.948Z,2.92
2023-04-28T05:37:04.090Z,3.55
2023-04-28T05:39:32.552Z,2.80
2023-04-28T05:41:58.734Z,3.08
2023-04-28T05:44:25.301Z,2.92
2023-04-28T05:46:51.541Z,3.30
2023-04-28T05:49:17.830Z,3.05
2023-04-28T05:51:45.332Z,3.38
2023-04-28T05:54:11.477Z,3.30
2023-04-28T05:56:37.702Z,3.88
2023-04-28T05:59:04.104Z,3.53
2023-04-28T06:01:31.611Z,3.35
2023-04-28T06:03:58.529Z,3.15
2023-04-28T06:06:25.879Z,3.05
2023-04-28T06:08:52.576Z,3.00
2023-04-28T06:11:21.855Z,3.25
2023-04-28T06:13:51.178Z,4.07
2023-04-28T06:16:18.514Z,3.08
2023-04-28T06:18:45.014Z,3.22
2023-04-28T06:21:11.430Z,3.38
2023-04-28T06:23:42.849Z,3.08
2023-04-28T06:26:09.335Z,3.30
2023-04-28T06:28:35.822Z,3.15
2023-04-28T06:31:02.041Z,2.60
2023-04-28T06:33:28.527Z,3.17
2023-04-28T06:35:54.931Z,2.55
2023-04-28T06:38:21.166Z,2.45
2023-04-28T06:40:47.490Z,3.03
2023-04-28T06:43:13.678Z,2.92
2023-04-28T06:45:39.978Z,2.92
2023-04-28T06:48:07.481Z,2.47
2023-04-28T06:50:33.886Z,3.38
2023-04-28T06:53:00.965Z,2.80
2023-04-28T06:55:30.595Z,2.92
2023-04-28T06:57:56.802Z,2.70
2023-04-28T07:00:23.127Z,3.17
2023-04-28T07:02:49.457Z,2.72
2023-04-28T07:05:16.704Z,2.65
2023-04-28T07:07:43.112Z,2.70
2023-04-28T07:10:10.289Z,3.08
2023-04-28T07:12:36.588Z,3.50
2023-04-28T07:15:02.850Z,2.80
2023-04-28T07:17:29.142Z,3.30
2023-04-28T07:19:58.005Z,3.08
2023-04-28T07:22:24.390Z,3.13
2023-04-28T07:24:50.871Z,3.10
2023-04-28T07:27:17.401Z,3.17
2023-04-28T07:29:43.967Z,2.80
2023-04-28T07:32:10.617Z,2.90
2023-04-28T07:34:37.192Z,2.38
2023-04-28T07:37:05.111Z,2.42
2023-04-28T07:39:33.570Z,2.30
2023-04-28T07:42:00.149Z,3.22
2023-04-28T07:44:26.635Z,2.92
2023-04-28T07:46:53.371Z,2.95
2023-04-28T07:49:19.573Z,3.20
2023-04-28T07:51:45.937Z,2.75
2023-04-28T07:54:12.335Z,3.15
2023-04-28T07:56:38.733Z,2.55
2023-04-28T07:59:04.984Z,2.83
2023-04-28T08:01:33.265Z,2.95
2023-04-28T08:03:59.533Z,3.08
2023-04-28T08:06:28.820Z,2.70
2023-04-28T08:08:55.416Z,2.50
2023-04-28T08:11:22.151Z,2.65
2023-04-28T08:13:49.087Z,2.35
2023-04-28T08:16:15.855Z,2.63
2023-04-28T08:18:45.164Z,2.20
2023-04-28T08:21:14.344Z,2.63
2023-04-28T08:23:40.465Z,2.35
2023-04-28T08:26:06.719Z,2.63
2023-04-28T08:28:33.745Z,2.45
2023-04-28T08:31:00.581Z,2.80
2023-04-28T08:33:28.267Z,3.05
2023-04-28T08:35:55.347Z,2.53
2023-04-28T08:38:23.711Z,2.75
2023-04-28T08:40:49.885Z,2.72
2023-04-28T08:43:16.305Z,3.30
2023-04-28T08:45:45.158Z,2.70
2023-04-28T08:48:20.911Z,3.42
2023-04-28T08:50:51.604Z,2.60
2023-04-28T08:53:25.486Z,2.50
2023-04-28T08:55:57.710Z,3.13
2023-04-28T08:58:24.889Z,3.28
2023-04-28T09:00:52.068Z,2.70
2023-04-28T09:03:18.494Z,3.10
2023-04-28T09:05:47.342Z,2.60
2023-04-28T09:08:13.832Z,3.00
2023-04-28T09:10:40.805Z,3.33
2023-04-28T09:13:07.339Z,2.95
2023-04-28T09:15:36.131Z,3.17
2023-04-28T09:18:06.639Z,3.95
2023-04-28T09:20:40.125Z,3.20
2023-04-28T09:23:14.755Z,4.00
2023-04-28T09:25:40.843Z,2.97
2023-04-28T09:28:21.719Z,3.40
2023-04-28T09:30:50.344Z,3.55
2023-04-28T09:33:16.709Z,3.20
2023-04-28T09:35:46.448Z,3.40
2023-04-28T09:38:12.732Z,3.45
2023-04-28T09:41:01.604Z,3.15
2023-04-28T09:43:32.930Z,3.50
2023-04-28T09:46:01.342Z,3.55
2023-04-28T09:48:35.925Z,3.83
2023-04-28T09:51:07.377Z,3.15
2023-04-28T09:53:34.253Z,3.42
2023-04-28T09:56:03.008Z,3.60
2023-04-28T09:58:29.816Z,3.40
2023-04-28T10:00:57.663Z,3.83
2023-04-28T10:03:30.986Z,3.22
2023-04-28T10:05:58.588Z,3.45
2023-04-28T10:08:26.730Z,3.78
2023-04-28T10:10:54.197Z,4.07
2023-04-28T10:13:23.638Z,4.07
2023-04-28T10:15:59.159Z,3.70
2023-04-28T10:18:25.532Z,3.75
2023-04-28T10:20:59.941Z,3.08
2023-04-28T10:23:56.853Z,3.35
2023-04-28T10:26:34.876Z,3.95
2023-04-28T10:29:01.202Z,3.17
2023-04-28T10:31:27.380Z,3.05
2023-04-28T10:33:54.384Z,3.88
2023-04-28T10:36:50.749Z,4.30
2023-04-28T10:39:17.150Z,3.80
2023-04-28T10:41:45.912Z,3.40
2023-04-28T10:44:30.179Z,3.95
2023-04-28T10:47:03.671Z,3.30
2023-04-28T10:50:07.846Z,3.20
2023-04-28T10:52:37.702Z,3.30
2023-04-28T10:55:30.365Z,3.10
2023-04-28T10:58:14.889Z,3.60
2023-04-28T11:00:41.807Z,3.55
2023-04-28T11:03:08.072Z,4.10
2023-04-28T11:05:35.140Z,3.53
2023-04-28T11:08:30.642Z,4.13
2023-04-28T11:11:17.466Z,4.07
2023-04-28T11:13:46.764Z,3.25
2023-04-28T11:16:17.650Z,4.22
2023-04-28T11:18:55.841Z,4.03
2023-04-28T11:21:23.690Z,3.85
2023-04-28T11:23:50.045Z,4.75
2023-04-28T11:26:17.034Z,4.30
2023-04-28T11:28:54.103Z,3.85
2023-04-28T11:31:24.715Z,4.28
2023-04-28T11:33:58.101Z,4.10
2023-04-28T11:36:29.293Z,4.28
2023-04-28T11:38:56.875Z,3.78
2023-04-28T11:41:23.300Z,4.35
2023-04-28T11:43:49.780Z,3.75
2023-04-28T11:46:21.862Z,4.10
2023-04-28T11:48:51.421Z,3.83
2023-04-28T11:51:37.595Z,4.05
2023-04-28T11:54:06.802Z,4.85
2023-04-28T11:56:37.646Z,4.15
2023-04-28T11:59:05.815Z,4.95
2023-04-28T12:01:32.836Z,4.65
2023-04-28T12:04:01.924Z,4.05
2023-04-28T12:06:28.290Z,4.00
2023-04-28T12:09:03.911Z,4.18
2023-04-28T12:11:30.770Z,4.07
2023-04-28T12:14:04.429Z,3.67
2023-04-28T12:16:43.651Z,3.45
2023-04-28T12:19:10.885Z,4.57
2023-04-28T12:21:38.615Z,5.13
2023-04-28T12:24:19.356Z,3.85
2023-04-28T12:26:46.443Z,4.57
2023-04-28T12:29:41.390Z,4.10
2023-04-28T12:32:15.154Z,4.22
2023-04-28T12:34:42.090Z,4.50
2023-04-28T12:37:08.953Z,3.97
2023-04-28T12:39:39.531Z,3.78
2023-04-28T12:42:06.525Z,4.85
2023-04-28T12:44:35.424Z,4.05
2023-04-28T12:47:06.876Z,4.20
2023-04-28T12:49:34.672Z,3.90
2023-04-28T12:52:01.326Z,4.53
2023-04-28T12:54:27.534Z,3.88
2023-04-28T12:56:56.670Z,4.45
2023-04-28T12:59:23.645Z,4.28
2023-04-28T13:01:50.470Z,3.90
2023-04-28T13:04:18.417Z,3.72
2023-04-28T13:06:44.775Z,4.00
2023-04-28T13:09:12.113Z,4.18
2023-04-28T13:11:38.899Z,4.15
2023-04-28T13:14:05.525Z,4.10
2023-04-28T13:16:31.839Z,4.07
2023-04-28T13:18:58.155Z,3.90
2023-04-28T13:21:26.225Z,3.63
2023-04-28T13:23:53.815Z,3.78
2023-04-28T13:26:20.653Z,4.15
2023-04-28T13:28:47.282Z,4.07
2023-04-28T13:31:14.251Z,3.70
2023-04-28T13:33:40.748Z,3.80
2023-04-28T13:36:08.095Z,4.00
2023-04-28T13:38:36.378Z,3.97
2023-04-28T13:41:03.153Z,3.28
2023-04-28T13:43:30.783Z,3.70
2023-04-28T13:45:57.589Z,3.20
2023-04-28T13:48:26.409Z,4.07
2023-04-28T13:50:54.801Z,3.50
2023-04-28T13:53:22.657Z,4.20
2023-04-28T13:55:50.959Z,3.83
2023-04-28T13:58:17.633Z,3.85
2023-04-28T14:00:46.518Z,4.25
2023-04-28T14:03:15.984Z,3.33
2023-04-28T14:05:49.550Z,4.03
2023-04-28T14:08:19.339Z,3.58
2023-04-28T14:10:47.583Z,3.90
2023-04-28T14:13:14.045Z,3.97
2023-04-28T14:15:51.199Z,3.78
2023-04-28T14:18:27.131Z,4.15
2023-04-28T14:20:56.640Z,3.95
2023-04-28T14:23:22.882Z,3.85
2023-04-28T14:25:49.917Z,3.50
2023-04-28T14:28:16.230Z,3.90
2023-04-28T14:30:42.821Z,3.55
2023-04-28T14:33:10.178Z,4.10
2023-04-28T14:35:36.465Z,3.80
2023-04-28T14:38:03.150Z,4.18
2023-04-28T14:40:29.334Z,4.18
2023-04-28T14:42:55.615Z,3.90
2023-04-28T14:45:24.595Z,4.20
2023-04-28T14:47:50.828Z,4.10
2023-04-28T14:50:18.909Z,3.63
2023-04-28T14:52:45.331Z,3.75
2023-04-28T14:55:11.598Z,4.53
2023-04-28T14:57:40.438Z,3.95
2023-04-28T15:00:08.667Z,4.22
2023-04-28T15:02:35.825Z,3.80
2023-04-28T15:05:02.384Z,3.72
2023-04-28T15:07:32.136Z,3.88
2023-04-28T15:09:59.119Z,3.90
2023-04-28T15:12:25.886Z,3.97
2023-04-28T15:14:53.470Z,3.92
2023-04-28T15:17:20.837Z,4.22
2023-04-28T15:19:47.292Z,4.65
2023-04-28T15:22:13.630Z,4.68
2023-04-28T15:24:40.005Z,3.95
2023-04-28T15:27:06.300Z,4.40
2023-04-28T15:29:32.684Z,4.00
2023-04-28T15:32:00.015Z,4.60
2023-04-28T15:34:26.403Z,4.65
2023-04-28T15:36:56.223Z,4.47
2023-04-28T15:39:23.510Z,4.13
2023-04-28T15:41:51.113Z,3.90
2023-04-28T15:44:17.221Z,4.25
2023-04-28T15:46:44.601Z,4.47
2023-04-28T15:49:11.512Z,5.38
2023-04-28T15:51:40.523Z,4.93
2023-04-28T15:54:07.389Z,4.70
2023-04-28T15:56:33.780Z,4.75
2023-04-28T15:58:59.975Z,5.30
2023-04-28T16:01:26.179Z,4.60
2023-04-28T16:03:52.467Z,5.22
2023-04-28T16:06:18.602Z,4.72
2023-04-28T16:08:44.806Z,4.80
2023-04-28T16:11:17.207Z,4.75
2023-04-28T16:13:44.235Z,5.10
2023-04-28T16:16:12.075Z,4.97
2023-04-28T16:18:38.576Z,4.70
2023-04-28T16:21:05.006Z,4.95
2023-04-28T16:23:31.253Z,4.95
2023-04-28T16:25:57.437Z,4.82
2023-04-28T16:28:23.653Z,5.18
2023-04-28T16:30:52.593Z,4.55
2023-04-28T16:33:18.707Z,5.00
2023-04-28T16:35:45.105Z,5.53
2023-04-28T16:38:14.978Z,5.32
2023-04-28T16:40:41.555Z,5.07
2023-04-28T16:43:07.547Z,5.45
2023-04-28T16:45:33.814Z,4.95
2023-04-28T16:48:00.102Z,5.60
2023-04-28T16:50:26.432Z,4.97
2023-04-28T16:52:54.134Z,5.68
2023-04-28T16:55:20.325Z,5.07
2023-04-28T16:57:46.480Z,6.00
2023-04-28T17:00:13.602Z,5.22
2023-04-28T17:02:42.844Z,5.50
2023-04-28T17:05:09.894Z,5.65
2023-04-28T17:07:36.346Z,6.07
2023-04-28T17:10:02.776Z,5.50
2023-04-28T17:12:29.144Z,5.40
2023-04-28T17:14:55.152Z,5.30
2023-04-28T17:17:21.337Z,6.00
2023-04-28T17:19:47.542Z,5.85
2023-04-28T17:22:14.613Z,6.32
2023-04-28T17:24:40.970Z,6.80
2023-04-28T17:27:09.111Z,7.20
2023-04-28T17:29:35.327Z,8.27
2023-04-28T17:32:01.500Z,7.47
2023-04-28T17:34:27.609Z,8.07
2023-04-28T17:36:53.782Z,7.78
2023-04-28T17:39:19.993Z,7.72
2023-04-28T17:41:46.909Z,7.30
2023-04-28T17:44:13.006Z,6.97
2023-04-28T17:46:39.304Z,7.78
2023-04-28T17:49:05.811Z,7.05
2023-04-28T17:51:32.124Z,6.78
2023-04-28T17:53:58.312Z,7.82
2023-04-28T17:56:27.350Z,6.60
2023-04-28T17:58:56.051Z,7.93
2023-04-28T18:01:22.503Z,7.50
2023-04-28T18:03:51.510Z,7.03
2023-04-28T18:06:21.790Z,7.55
2023-04-28T18:08:47.898Z,7.25
2023-04-28T18:11:14.352Z,7.45
2023-04-28T18:13:40.645Z,7.05
2023-04-28T18:16:14.513Z,7.38
2023-04-28T18:18:41.630Z,7.85
2023-04-28T18:21:07.929Z,7.82
2023-04-28T18:23:34.059Z,7.30
2023-04-28T18:26:00.547Z,8.68
2023-04-28T18:28:26.942Z,8.02
2023-04-28T18:30:53.162Z,7.75
2023-04-28T18:33:21.416Z,7.90
2023-04-28T18:35:49.444Z,8.10
2023-04-28T18:38:15.977Z,8.05
2023-04-28T18:40:42.194Z,8.18
2023-04-28T18:43:10.279Z,7.50
2023-04-28T18:45:40.265Z,7.45
2023-04-28T18:48:07.465Z,6.53
2023-04-28T18:50:33.748Z,6.20
2023-04-28T18:53:01.259Z,6.35
2023-04-28T18:55:34.141Z,6.03
2023-04-28T18:58:01.533Z,5.40
2023-04-28T19:00:27.636Z,5.57
2023-04-28T19:02:54.011Z,5.72
2023-04-28T19:05:22.952Z,6.15
2023-04-28T19:07:49.139Z,5.82
2023-04-28T19:10:18.116Z,5.43
2023-04-28T19:12:44.244Z,5.85
2023-04-28T19:15:10.502Z,5.55
2023-04-28T19:17:36.742Z,5.65
2023-04-28T19:20:03.583Z,6.10
2023-04-28T19:22:31.204Z,5.18
2023-04-28T19:24:59.177Z,6.18
2023-04-28T19:27:29.391Z,6.00
2023-04-28T19:29:55.504Z,5.88
2023-04-28T19:32:30.799Z,5.45
2023-04-28T19:34:57.304Z,5.95
2023-04-28T19:37:24.975Z,5.45
2023-04-28T19:39:51.461Z,5.50
2023-04-28T19:42:21.809Z,5.68
2023-04-28T19:44:55.636Z,6.53
2023-04-28T19:47:25.829Z,5.55
2023-04-28T19:49:52.491Z,5.43
2023-04-28T19:52:20.542Z,5.65
2023-04-28T19:54:48.314Z,5.28
2023-04-28T19:57:14.934Z,5.18
2023-04-28T19:59:41.067Z,5.38
2023-04-28T20:02:09.327Z,5.57
2023-04-28T20:04:44.629Z,5.30
2023-04-28T20:07:13.760Z,5.03
2023-04-28T20:09:40.106Z,5.45
2023-04-28T20:12:08.381Z,5.38
2023-04-28T20:14:35.570Z,5.75
2023-04-28T20:17:03.303Z,5.28
2023-04-28T20:19:29.669Z,4.88
2023-04-28T20:21:56.181Z,5.53
2023-04-28T20:24:22.599Z,5.25
2023-04-28T20:26:52.162Z,5.18
2023-04-28T20:29:18.227Z,4.25
2023-04-28T20:31:44.545Z,4.65
2023-04-28T20:34:11.232Z,5.20
2023-04-28T20:36:38.645Z,5.05
2023-04-28T20:39:07.144Z,5.15
2023-04-28T20:41:33.342Z,5.10
2023-04-28T20:43:59.466Z,4.82
2023-04-28T20:46:25.667Z,4.75
2023-04-28T20:48:51.789Z,5.00
2023-04-28T20:51:17.976Z,5.32
2023-04-28T20:53:44.020Z,5.22
2023-04-28T20:56:10.249Z,5.18
2023-04-28T20:58:42.014Z,4.40
2023-04-28T21:01:08.827Z,5.85
2023-04-28T21:03:35.165Z,5.15
2023-04-28T21:06:01.558Z,5.18
2023-04-28T21:08:29.696Z,4.97
2023-04-28T21:10:55.802Z,5.60
2023-04-28T21:13:21.979Z,5.72
2023-04-28T21:15:48.143Z,5.47
2023-04-28T21:18:14.413Z,6.10
2023-04-28T21:20:40.698Z,5.38
2023-04-28T21:23:07.211Z,5.85
2023-04-28T21:25:33.331Z,5.78
2023-04-28T21:28:01.519Z,5.45
2023-04-28T21:30:28.095Z,5.75
2023-04-28T21:32:54.723Z,5.93
2023-04-28T21:35:25.686Z,5.82
2023-04-28T21:37:51.907Z,5.53
2023-04-28T21:40:19.641Z,6.05
2023-04-28T21:42:46.144Z,6.13
2023-04-28T21:45:12.357Z,5.80
2023-04-28T21:47:40.340Z,5.15
2023-04-28T21:50:11.458Z,5.40
2023-04-28T21:52:38.414Z,5.68
2023-04-28T21:55:05.116Z,4.78
2023-04-28T21:57:31.944Z,5.40
2023-04-28T22:02:39.781Z,5.63
2023-04-28T22:05:09.290Z,4.85
2023-04-28T22:07:37.990Z,4.50
2023-04-28T22:10:08.907Z,4.57
2023-04-28T22:12:38.013Z,5.10
2023-04-28T22:15:04.951Z,5.00
2023-04-28T22:17:31.136Z,4.90
2023-04-28T22:19:58.242Z,5.40
2023-04-28T22:22:24.683Z,4.78
2023-04-28T22:24:52.277Z,4.82
2023-04-28T22:27:18.542Z,4.95
2023-04-28T22:29:44.963Z,5.70
2023-04-28T22:32:11.401Z,5.43
2023-04-28T22:34:37.665Z,5.25
2023-04-28T22:37:04.003Z,4.95
2023-04-28T22:39:30.190Z,5.40
2023-04-28T22:41:56.383Z,5.03
2023-04-28T22:44:24.612Z,4.47
2023-04-28T22:46:50.762Z,5.07
2023-04-28T22:49:24.675Z,4.88
2023-04-28T22:51:53.311Z,4.70
2023-04-28T22:54:19.599Z,4.95
2023-04-28T22:56:45.890Z,4.55
2023-04-28T22:59:11.993Z,4.53
2023-04-28T23:01:39.549Z,4.40
2023-04-28T23:04:09.373Z,4.88
2023-04-28T23:06:35.812Z,5.03
2023-04-28T23:09:03.289Z,4.07
2023-04-28T23:11:29.692Z,4.28
2023-04-28T23:13:55.777Z,4.82
2023-04-28T23:16:22.534Z,4.55
2023-04-28T23:18:49.690Z,4.50
2023-04-28T23:21:18.754Z,5.00
2023-04-28T23:23:45.018Z,4.45
2023-04-28T23:26:11.192Z,4.40
2023-04-28T23:28:37.278Z,5.07
2023-04-28T23:31:04.030Z,4.50
2023-04-28T23:33:30.343Z,4.40
2023-04-28T23:35:56.502Z,4.55
2023-04-28T23:38:22.729Z,4.90
2023-04-28T23:40:51.618Z,4.38
2023-04-28T23:43:17.942Z,4.07
2023-04-28T23:45:44.182Z,4.45
2023-04-28T23:48:10.792Z,4.60
2023-04-28T23:50:36.938Z,4.13
2023-04-28T23:53:03.987Z,5.10
2023-04-28T23:55:30.184Z,4.57
2023-04-28T23:57:56.280Z,4.57
